sensor_id;sensor_type;location;lat;lon;timestamp;pressure;altitude;pressure_sealevel;temperature;humidity
39075;BME280;24826;52.070;20.970;2023-02-10T00:02:19;61525.91;;;-147.04;62.51
39075;BME280;24826;52.070;20.970;2023-02-10T00:05:04;61535.88;;;-147.04;62.74
39075;BME280;24826;52.070;20.970;2023-02-10T00:07:48;61533.88;;;-147.04;62.79
39075;BME280;24826;52.070;20.970;2023-02-10T00:10:32;61523.94;;;-147.04;62.87
39075;BME280;24826;52.070;20.970;2023-02-10T00:13:16;61514.00;;;-147.04;62.71
39075;BME280;24826;52.070;20.970;2023-02-10T00:16:03;61537.84;;;-147.04;62.88
39075;BME280;24826;52.070;20.970;2023-02-10T00:18:48;61547.78;;;-147.04;62.89
39075;BME280;24826;52.070;20.970;2023-02-10T00:21:33;61567.69;;;-147.04;63.11
39075;BME280;24826;52.070;20.970;2023-02-10T00:24:18;61525.91;;;-147.04;61.98
39075;BME280;24826;52.070;20.970;2023-02-10T00:27:03;61519.94;;;-147.04;62.46
39075;BME280;24826;52.070;20.970;2023-02-10T00:29:47;61508.03;;;-147.04;62.83
39075;BME280;24826;52.070;20.970;2023-02-10T00:32:33;61559.72;;;-147.04;63.32
39075;BME280;24826;52.070;20.970;2023-02-10T00:35:21;61531.88;;;-147.04;63.76
39075;BME280;24826;52.070;20.970;2023-02-10T00:38:05;61565.69;;;-147.04;63.68
39075;BME280;24826;52.070;20.970;2023-02-10T00:40:49;61543.81;;;-147.04;63.53
39075;BME280;24826;52.070;20.970;2023-02-10T00:43:34;61539.84;;;-147.04;63.61
39075;BME280;24826;52.070;20.970;2023-02-10T00:46:21;61551.78;;;-147.04;63.76
39075;BME280;24826;52.070;20.970;2023-02-10T00:49:06;61531.88;;;-147.04;63.74
39075;BME280;24826;52.070;20.970;2023-02-10T00:51:50;61533.88;;;-147.04;64.39
39075;BME280;24826;52.070;20.970;2023-02-10T00:54:35;61545.81;;;-147.04;64.28
39075;BME280;24826;52.070;20.970;2023-02-10T00:57:19;61543.81;;;-147.04;64.20
39075;BME280;24826;52.070;20.970;2023-02-10T01:00:04;61514.00;;;-147.04;64.45
39075;BME280;24826;52.070;20.970;2023-02-10T01:02:49;61559.72;;;-147.04;64.46
39075;BME280;24826;52.070;20.970;2023-02-10T01:05:34;61541.81;;;-147.04;64.79
39075;BME280;24826;52.070;20.970;2023-02-10T01:08:18;61535.88;;;-147.04;65.27
39075;BME280;24826;52.070;20.970;2023-02-10T01:11:05;61535.88;;;-147.04;64.86
39075;BME280;24826;52.070;20.970;2023-02-10T01:13:49;61555.75;;;-147.04;64.62
39075;BME280;24826;52.070;20.970;2023-02-10T01:16:34;61525.91;;;-147.04;64.36
39075;BME280;24826;52.070;20.970;2023-02-10T01:19:18;61569.66;;;-147.04;64.33
39075;BME280;24826;52.070;20.970;2023-02-10T01:22:03;61551.78;;;-147.04;64.07
39075;BME280;24826;52.070;20.970;2023-02-10T01:24:47;61561.72;;;-147.04;64.08
39075;BME280;24826;52.070;20.970;2023-02-10T01:27:31;61547.78;;;-147.04;65.03
39075;BME280;24826;52.070;20.970;2023-02-10T01:30:16;61551.78;;;-147.04;64.97
39075;BME280;24826;52.070;20.970;2023-02-10T01:33:01;61577.63;;;-147.04;64.95
39075;BME280;24826;52.070;20.970;2023-02-10T01:35:45;61559.72;;;-147.04;65.37
39075;BME280;24826;52.070;20.970;2023-02-10T01:38:30;61555.75;;;-147.04;65.35
39075;BME280;24826;52.070;20.970;2023-02-10T01:41:16;61585.56;;;-147.04;65.35
39075;BME280;24826;52.070;20.970;2023-02-10T01:44:05;61577.63;;;-147.04;65.32
39075;BME280;24826;52.070;20.970;2023-02-10T01:46:50;61541.81;;;-147.04;65.00
39075;BME280;24826;52.070;20.970;2023-02-10T01:49:40;61567.69;;;-147.04;65.25
39075;BME280;24826;52.070;20.970;2023-02-10T01:52:27;61567.69;;;-147.04;64.76
39075;BME280;24826;52.070;20.970;2023-02-10T01:55:16;61561.72;;;-147.04;64.69
39075;BME280;24826;52.070;20.970;2023-02-10T01:58:03;61587.56;;;-147.04;64.94
39075;BME280;24826;52.070;20.970;2023-02-10T02:00:50;61529.91;;;-147.04;65.07
39075;BME280;24826;52.070;20.970;2023-02-10T02:03:35;61585.56;;;-147.04;65.08
39075;BME280;24826;52.070;20.970;2023-02-10T02:06:20;61551.78;;;-147.04;65.12
39075;BME280;24826;52.070;20.970;2023-02-10T02:09:06;61579.59;;;-147.04;64.92
39075;BME280;24826;52.070;20.970;2023-02-10T02:12:16;61577.63;;;-147.04;65.28
39075;BME280;24826;52.070;20.970;2023-02-10T02:15:45;61579.59;;;-147.04;65.11
39075;BME280;24826;52.070;20.970;2023-02-10T02:18:29;61541.81;;;-147.04;65.69
39075;BME280;24826;52.070;20.970;2023-02-10T02:27:35;61575.63;;;-147.04;65.35
39075;BME280;24826;52.070;20.970;2023-02-10T02:30:45;61567.69;;;-147.04;65.69
39075;BME280;24826;52.070;20.970;2023-02-10T02:33:49;61547.78;;;-147.04;65.95
39075;BME280;24826;52.070;20.970;2023-02-10T02:36:43;61567.69;;;-147.04;65.66
39075;BME280;24826;52.070;20.970;2023-02-10T02:39:32;61619.38;;;-147.04;65.70
39075;BME280;24826;52.070;20.970;2023-02-10T02:42:19;61575.63;;;-147.04;65.47
39075;BME280;24826;52.070;20.970;2023-02-10T02:45:07;61569.66;;;-147.04;65.68
39075;BME280;24826;52.070;20.970;2023-02-10T02:48:04;61583.59;;;-147.04;66.06
39075;BME280;24826;52.070;20.970;2023-02-10T02:54:13;61563.69;;;-147.04;65.99
39075;BME280;24826;52.070;20.970;2023-02-10T02:57:08;61619.38;;;-147.04;65.80
39075;BME280;24826;52.070;20.970;2023-02-10T03:02:47;61585.56;;;-147.04;65.90
39075;BME280;24826;52.070;20.970;2023-02-10T03:05:32;61647.22;;;-147.04;65.81
39075;BME280;24826;52.070;20.970;2023-02-10T03:08:16;61571.66;;;-147.04;65.48
39075;BME280;24826;52.070;20.970;2023-02-10T03:11:00;61567.69;;;-147.04;65.29
39075;BME280;24826;52.070;20.970;2023-02-10T03:13:45;61555.75;;;-147.04;65.04
39075;BME280;24826;52.070;20.970;2023-02-10T03:16:29;61575.63;;;-147.04;64.41
39075;BME280;24826;52.070;20.970;2023-02-10T03:19:14;61595.53;;;-147.04;65.02
39075;BME280;24826;52.070;20.970;2023-02-10T03:21:59;61573.66;;;-147.04;64.98
39075;BME280;24826;52.070;20.970;2023-02-10T03:24:43;61559.72;;;-147.04;64.36
39075;BME280;24826;52.070;20.970;2023-02-10T03:27:27;61557.75;;;-147.04;64.04
39075;BME280;24826;52.070;20.970;2023-02-10T03:30:12;61571.66;;;-147.04;64.59
39075;BME280;24826;52.070;20.970;2023-02-10T03:32:56;61551.78;;;-147.04;65.46
39075;BME280;24826;52.070;20.970;2023-02-10T03:35:42;61555.75;;;-147.04;64.75
39075;BME280;24826;52.070;20.970;2023-02-10T03:38:27;61579.59;;;-147.04;64.24
39075;BME280;24826;52.070;20.970;2023-02-10T03:41:12;61535.88;;;-147.04;64.88
39075;BME280;24826;52.070;20.970;2023-02-10T03:43:57;61547.78;;;-147.04;66.04
39075;BME280;24826;52.070;20.970;2023-02-10T03:46:42;61575.63;;;-147.04;65.79
39075;BME280;24826;52.070;20.970;2023-02-10T03:49:26;61541.81;;;-147.04;65.08
39075;BME280;24826;52.070;20.970;2023-02-10T03:52:11;61547.78;;;-147.04;65.47
39075;BME280;24826;52.070;20.970;2023-02-10T03:54:55;61510.00;;;-147.04;64.52
39075;BME280;24826;52.070;20.970;2023-02-10T03:57:40;61545.81;;;-147.04;65.09
39075;BME280;24826;52.070;20.970;2023-02-10T04:00:25;61543.81;;;-147.04;63.99
39075;BME280;24826;52.070;20.970;2023-02-10T04:03:09;61525.91;;;-147.04;64.06
39075;BME280;24826;52.070;20.970;2023-02-10T04:05:54;61537.84;;;-147.04;64.16
39075;BME280;24826;52.070;20.970;2023-02-10T04:08:39;61527.91;;;-147.04;64.54
39075;BME280;24826;52.070;20.970;2023-02-10T04:11:23;61577.63;;;-147.04;64.49
39075;BME280;24826;52.070;20.970;2023-02-10T04:14:07;61551.78;;;-147.04;65.05
39075;BME280;24826;52.070;20.970;2023-02-10T04:16:52;61517.97;;;-147.04;64.17
39075;BME280;24826;52.070;20.970;2023-02-10T04:19:36;61512.00;;;-147.04;63.76
39075;BME280;24826;52.070;20.970;2023-02-10T04:22:21;61515.97;;;-147.04;63.61
39075;BME280;24826;52.070;20.970;2023-02-10T04:25:05;61555.75;;;-147.04;63.02
39075;BME280;24826;52.070;20.970;2023-02-10T04:27:50;61535.88;;;-147.04;62.55
39075;BME280;24826;52.070;20.970;2023-02-10T04:30:34;61514.00;;;-147.04;62.59
39075;BME280;24826;52.070;20.970;2023-02-10T04:33:19;61529.91;;;-147.04;62.38
39075;BME280;24826;52.070;20.970;2023-02-10T04:36:03;61539.84;;;-147.04;62.74
39075;BME280;24826;52.070;20.970;2023-02-10T04:38:48;61559.72;;;-147.04;62.86
39075;BME280;24826;52.070;20.970;2023-02-10T04:41:32;61549.78;;;-147.04;62.88
39075;BME280;24826;52.070;20.970;2023-02-10T04:44:16;61535.88;;;-147.04;62.57
39075;BME280;24826;52.070;20.970;2023-02-10T04:47:00;61488.13;;;-147.04;62.47
39075;BME280;24826;52.070;20.970;2023-02-10T04:49:45;61567.69;;;-147.04;63.13
39075;BME280;24826;52.070;20.970;2023-02-10T04:52:29;61563.69;;;-147.04;62.81
39075;BME280;24826;52.070;20.970;2023-02-10T04:55:14;61496.09;;;-147.04;63.21
39075;BME280;24826;52.070;20.970;2023-02-10T04:57:59;61527.91;;;-147.04;62.66
39075;BME280;24826;52.070;20.970;2023-02-10T05:00:43;61527.91;;;-147.04;62.79
39075;BME280;24826;52.070;20.970;2023-02-10T05:03:27;61557.75;;;-147.04;61.88
39075;BME280;24826;52.070;20.970;2023-02-10T05:06:14;61498.09;;;-147.04;62.21
39075;BME280;24826;52.070;20.970;2023-02-10T05:08:58;61567.69;;;-147.04;61.75
39075;BME280;24826;52.070;20.970;2023-02-10T05:11:43;61519.94;;;-147.04;61.95
39075;BME280;24826;52.070;20.970;2023-02-10T05:14:27;61527.91;;;-147.04;61.73
39075;BME280;24826;52.070;20.970;2023-02-10T05:17:11;61515.97;;;-147.04;61.81
39075;BME280;24826;52.070;20.970;2023-02-10T05:19:56;61523.94;;;-147.04;61.92
39075;BME280;24826;52.070;20.970;2023-02-10T05:22:40;61508.03;;;-147.04;61.88
39075;BME280;24826;52.070;20.970;2023-02-10T05:25:24;61514.00;;;-147.04;61.77
39075;BME280;24826;52.070;20.970;2023-02-10T05:28:08;61512.00;;;-147.04;62.19
39075;BME280;24826;52.070;20.970;2023-02-10T05:30:53;61515.97;;;-147.04;61.79
39075;BME280;24826;52.070;20.970;2023-02-10T05:33:37;61517.97;;;-147.04;62.63
39075;BME280;24826;52.070;20.970;2023-02-10T05:36:22;61514.00;;;-147.04;62.38
39075;BME280;24826;52.070;20.970;2023-02-10T05:39:06;61498.09;;;-147.04;62.67
39075;BME280;24826;52.070;20.970;2023-02-10T05:42:09;61500.06;;;-147.04;62.47
39075;BME280;24826;52.070;20.970;2023-02-10T05:44:54;61551.78;;;-147.04;63.29
39075;BME280;24826;52.070;20.970;2023-02-10T05:47:38;61512.00;;;-147.04;64.07
39075;BME280;24826;52.070;20.970;2023-02-10T05:50:22;61523.94;;;-147.04;64.04
39075;BME280;24826;52.070;20.970;2023-02-10T05:53:07;61504.03;;;-147.04;64.46
39075;BME280;24826;52.070;20.970;2023-02-10T05:55:52;61512.00;;;-147.04;64.34
39075;BME280;24826;52.070;20.970;2023-02-10T05:58:36;61515.97;;;-147.04;64.55
39075;BME280;24826;52.070;20.970;2023-02-10T06:01:21;61496.09;;;-147.04;64.75
39075;BME280;24826;52.070;20.970;2023-02-10T06:04:05;61502.06;;;-147.04;64.36
39075;BME280;24826;52.070;20.970;2023-02-10T06:06:50;61519.94;;;-147.04;64.69
39075;BME280;24826;52.070;20.970;2023-02-10T06:09:34;61508.03;;;-147.04;64.88
39075;BME280;24826;52.070;20.970;2023-02-10T06:12:19;61496.09;;;-147.04;63.96
39075;BME280;24826;52.070;20.970;2023-02-10T06:15:03;61521.94;;;-147.04;64.33
39075;BME280;24826;52.070;20.970;2023-02-10T06:17:48;61510.00;;;-147.04;64.48
39075;BME280;24826;52.070;20.970;2023-02-10T06:20:32;61506.03;;;-147.04;64.91
39075;BME280;24826;52.070;20.970;2023-02-10T06:23:17;61531.88;;;-147.04;64.88
39075;BME280;24826;52.070;20.970;2023-02-10T06:26:01;61486.16;;;-147.04;64.15
39075;BME280;24826;52.070;20.970;2023-02-10T06:28:46;61494.09;;;-147.04;65.26
39075;BME280;24826;52.070;20.970;2023-02-10T06:31:30;61508.03;;;-147.04;65.13
39075;BME280;24826;52.070;20.970;2023-02-10T06:34:14;61500.06;;;-147.04;65.62
39075;BME280;24826;52.070;20.970;2023-02-10T06:36:59;61535.88;;;-147.04;66.17
39075;BME280;24826;52.070;20.970;2023-02-10T06:39:43;61515.97;;;-147.04;65.83
39075;BME280;24826;52.070;20.970;2023-02-10T06:42:28;61521.94;;;-147.04;66.25
39075;BME280;24826;52.070;20.970;2023-02-10T06:45:12;61492.13;;;-147.04;66.94
39075;BME280;24826;52.070;20.970;2023-02-10T06:47:56;61525.91;;;-147.04;67.14
39075;BME280;24826;52.070;20.970;2023-02-10T06:50:41;61527.91;;;-147.04;66.72
39075;BME280;24826;52.070;20.970;2023-02-10T06:53:25;61468.25;;;-147.04;67.16
39075;BME280;24826;52.070;20.970;2023-02-10T06:56:10;61504.03;;;-147.04;67.35
39075;BME280;24826;52.070;20.970;2023-02-10T06:58:54;61504.03;;;-147.04;67.10
39075;BME280;24826;52.070;20.970;2023-02-10T07:01:39;61517.97;;;-147.04;66.54
39075;BME280;24826;52.070;20.970;2023-02-10T07:04:23;61498.09;;;-147.04;66.82
39075;BME280;24826;52.070;20.970;2023-02-10T07:07:08;61502.06;;;-147.04;66.09
39075;BME280;24826;52.070;20.970;2023-02-10T07:09:52;61508.03;;;-147.04;66.04
39075;BME280;24826;52.070;20.970;2023-02-10T07:12:38;61543.81;;;-147.04;66.74
39075;BME280;24826;52.070;20.970;2023-02-10T07:15:22;61514.00;;;-147.04;67.00
39075;BME280;24826;52.070;20.970;2023-02-10T07:18:07;61508.03;;;-147.04;66.75
39075;BME280;24826;52.070;20.970;2023-02-10T07:20:51;61508.03;;;-147.04;66.87
39075;BME280;24826;52.070;20.970;2023-02-10T07:23:36;61527.91;;;-147.04;66.61
39075;BME280;24826;52.070;20.970;2023-02-10T07:26:20;61504.03;;;-147.04;66.86
39075;BME280;24826;52.070;20.970;2023-02-10T07:29:05;61508.03;;;-147.04;67.02
39075;BME280;24826;52.070;20.970;2023-02-10T07:31:49;61559.72;;;-147.04;66.99
39075;BME280;24826;52.070;20.970;2023-02-10T07:34:33;61577.63;;;-147.04;67.35
39075;BME280;24826;52.070;20.970;2023-02-10T07:37:19;61547.78;;;-147.04;67.09
39075;BME280;24826;52.070;20.970;2023-02-10T07:40:04;61579.59;;;-147.04;67.02
39075;BME280;24826;52.070;20.970;2023-02-10T07:42:48;61599.50;;;-147.04;67.05
39075;BME280;24826;52.070;20.970;2023-02-10T07:45:32;61563.69;;;-147.04;67.36
39075;BME280;24826;52.070;20.970;2023-02-10T07:48:17;61555.75;;;-147.04;67.08
39075;BME280;24826;52.070;20.970;2023-02-10T07:51:02;61553.75;;;-147.04;67.20
39075;BME280;24826;52.070;20.970;2023-02-10T07:53:46;61561.72;;;-147.04;67.49
39075;BME280;24826;52.070;20.970;2023-02-10T07:56:31;61545.81;;;-147.04;67.07
39075;BME280;24826;52.070;20.970;2023-02-10T07:59:16;61559.72;;;-147.04;66.89
39075;BME280;24826;52.070;20.970;2023-02-10T08:02:00;61581.59;;;-147.04;66.76
39075;BME280;24826;52.070;20.970;2023-02-10T08:04:44;61555.75;;;-147.04;66.75
39075;BME280;24826;52.070;20.970;2023-02-10T08:07:29;61547.78;;;-147.04;67.18
39075;BME280;24826;52.070;20.970;2023-02-10T08:10:13;61531.88;;;-147.04;67.16
39075;BME280;24826;52.070;20.970;2023-02-10T08:12:58;61643.25;;;-147.04;67.22
39075;BME280;24826;52.070;20.970;2023-02-10T08:15:42;61525.91;;;-147.04;67.20
39075;BME280;24826;52.070;20.970;2023-02-10T08:18:27;61529.91;;;-147.04;67.15
39075;BME280;24826;52.070;20.970;2023-02-10T08:21:11;61531.88;;;-147.04;67.07
39075;BME280;24826;52.070;20.970;2023-02-10T08:23:56;61555.75;;;-147.04;67.44
39075;BME280;24826;52.070;20.970;2023-02-10T08:26:41;61535.88;;;-147.04;67.59
39075;BME280;24826;52.070;20.970;2023-02-10T08:29:26;61555.75;;;-147.04;67.47
39075;BME280;24826;52.070;20.970;2023-02-10T08:32:10;61514.00;;;-147.04;67.79
39075;BME280;24826;52.070;20.970;2023-02-10T08:34:57;61583.59;;;-147.04;67.89
39075;BME280;24826;52.070;20.970;2023-02-10T08:37:41;61571.66;;;-147.04;68.08
39075;BME280;24826;52.070;20.970;2023-02-10T08:40:25;61551.78;;;-147.04;68.11
39075;BME280;24826;52.070;20.970;2023-02-10T08:43:10;61500.06;;;-147.04;68.09
39075;BME280;24826;52.070;20.970;2023-02-10T08:45:56;61523.94;;;-147.04;68.28
39075;BME280;24826;52.070;20.970;2023-02-10T08:48:40;61527.91;;;-147.04;68.44
39075;BME280;24826;52.070;20.970;2023-02-10T08:51:25;61482.19;;;-147.04;69.07
39075;BME280;24826;52.070;20.970;2023-02-10T08:54:09;61545.81;;;-147.04;69.46
39075;BME280;24826;52.070;20.970;2023-02-10T08:56:54;61517.97;;;-147.04;69.22
39075;BME280;24826;52.070;20.970;2023-02-10T08:59:38;61512.00;;;-147.04;69.58
39075;BME280;24826;52.070;20.970;2023-02-10T09:02:23;61531.88;;;-147.04;69.47
39075;BME280;24826;52.070;20.970;2023-02-10T09:05:07;61494.09;;;-147.04;69.73
39075;BME280;24826;52.070;20.970;2023-02-10T09:07:52;61519.94;;;-147.04;70.16
39075;BME280;24826;52.070;20.970;2023-02-10T09:10:38;61519.94;;;-147.04;70.32
39075;BME280;24826;52.070;20.970;2023-02-10T09:13:23;61472.22;;;-147.04;70.97
39075;BME280;24826;52.070;20.970;2023-02-10T09:16:08;61519.94;;;-147.04;71.82
39075;BME280;24826;52.070;20.970;2023-02-10T09:18:53;61488.13;;;-147.04;72.23
39075;BME280;24826;52.070;20.970;2023-02-10T09:21:37;61512.00;;;-147.04;72.30
39075;BME280;24826;52.070;20.970;2023-02-10T09:24:22;61500.06;;;-147.04;72.42
39075;BME280;24826;52.070;20.970;2023-02-10T09:27:07;61508.03;;;-147.04;72.60
39075;BME280;24826;52.070;20.970;2023-02-10T09:29:52;61470.25;;;-147.04;73.05
39075;BME280;24826;52.070;20.970;2023-02-10T09:32:36;61496.09;;;-147.04;72.96
39075;BME280;24826;52.070;20.970;2023-02-10T09:35:21;61458.31;;;-147.04;73.18
39075;BME280;24826;52.070;20.970;2023-02-10T09:38:06;61476.22;;;-147.04;73.10
39075;BME280;24826;52.070;20.970;2023-02-10T09:49:59;61504.03;;;-147.04;75.37
39075;BME280;24826;52.070;20.970;2023-02-10T09:56:03;61490.13;;;-147.04;75.72
39075;BME280;24826;52.070;20.970;2023-02-10T09:58:51;61504.03;;;-147.04;75.92
39075;BME280;24826;52.070;20.970;2023-02-10T10:01:41;61482.19;;;-147.04;76.13
39075;BME280;24826;52.070;20.970;2023-02-10T10:04:29;61498.09;;;-147.04;76.46
39075;BME280;24826;52.070;20.970;2023-02-10T10:10:26;61643.25;;;-147.04;76.92
39075;BME280;24826;52.070;20.970;2023-02-10T10:13:20;61512.00;;;-147.04;76.87
39075;BME280;24826;52.070;20.970;2023-02-10T10:17:14;61482.19;;;-147.04;76.70
39075;BME280;24826;52.070;20.970;2023-02-10T10:32:15;61514.00;;;-147.04;78.07
39075;BME280;24826;52.070;20.970;2023-02-10T10:35:01;61527.91;;;-147.04;78.28
39075;BME280;24826;52.070;20.970;2023-02-10T10:37:45;61523.94;;;-147.04;78.16
39075;BME280;24826;52.070;20.970;2023-02-10T10:40:31;61500.06;;;-147.04;78.43
39075;BME280;24826;52.070;20.970;2023-02-10T10:43:47;61535.88;;;-147.04;78.53
39075;BME280;24826;52.070;20.970;2023-02-10T10:46:38;61531.88;;;-147.04;78.19
39075;BME280;24826;52.070;20.970;2023-02-10T10:49:24;61488.13;;;-147.04;77.89
39075;BME280;24826;52.070;20.970;2023-02-10T10:52:32;61504.03;;;-147.04;78.30
39075;BME280;24826;52.070;20.970;2023-02-10T10:55:23;61484.16;;;-147.04;79.01
39075;BME280;24826;52.070;20.970;2023-02-10T10:58:36;61464.28;;;-147.04;78.65
39075;BME280;24826;52.070;20.970;2023-02-10T11:01:35;61482.19;;;-147.04;78.96
39075;BME280;24826;52.070;20.970;2023-02-10T11:04:23;61476.22;;;-147.04;79.24
39075;BME280;24826;52.070;20.970;2023-02-10T11:07:19;61468.25;;;-147.04;79.73
39075;BME280;24826;52.070;20.970;2023-02-10T11:10:04;61476.22;;;-147.04;79.38
39075;BME280;24826;52.070;20.970;2023-02-10T11:12:49;61480.19;;;-147.04;79.31
39075;BME280;24826;52.070;20.970;2023-02-10T11:15:38;61508.03;;;-147.04;79.59
39075;BME280;24826;52.070;20.970;2023-02-10T11:18:23;61470.25;;;-147.04;80.09
39075;BME280;24826;52.070;20.970;2023-02-10T11:21:09;61472.22;;;-147.04;80.50
39075;BME280;24826;52.070;20.970;2023-02-10T11:23:54;61500.06;;;-147.04;80.95
39075;BME280;24826;52.070;20.970;2023-02-10T11:26:39;61500.06;;;-147.04;80.99
39075;BME280;24826;52.070;20.970;2023-02-10T11:29:24;61476.22;;;-147.04;80.80
39075;BME280;24826;52.070;20.970;2023-02-10T11:32:20;61476.22;;;-147.04;81.09
39075;BME280;24826;52.070;20.970;2023-02-10T11:35:06;61498.09;;;-147.04;81.03
39075;BME280;24826;52.070;20.970;2023-02-10T11:38:03;61464.28;;;-147.04;81.02
39075;BME280;24826;52.070;20.970;2023-02-10T11:43:40;61478.19;;;-147.04;81.57
39075;BME280;24826;52.070;20.970;2023-02-10T11:46:28;61474.22;;;-147.04;81.77
39075;BME280;24826;52.070;20.970;2023-02-10T11:49:17;61456.31;;;-147.04;82.41
39075;BME280;24826;52.070;20.970;2023-02-10T11:52:03;61500.06;;;-147.04;82.94
39075;BME280;24826;52.070;20.970;2023-02-10T11:54:50;61504.03;;;-147.04;82.80
39075;BME280;24826;52.070;20.970;2023-02-10T12:00:52;61462.28;;;-147.04;83.50
39075;BME280;24826;52.070;20.970;2023-02-10T12:07:15;61517.97;;;-147.04;84.11
39075;BME280;24826;52.070;20.970;2023-02-10T12:24:46;61492.13;;;-147.04;86.15
39075;BME280;24826;52.070;20.970;2023-02-10T12:36:50;61488.13;;;-147.04;87.56
39075;BME280;24826;52.070;20.970;2023-02-10T12:39:39;61468.25;;;-147.04;87.66
39075;BME280;24826;52.070;20.970;2023-02-10T12:42:44;61448.38;;;-147.04;87.94
39075;BME280;24826;52.070;20.970;2023-02-10T12:45:39;61458.31;;;-147.04;87.63
39075;BME280;24826;52.070;20.970;2023-02-10T12:48:44;61476.22;;;-147.04;87.73
39075;BME280;24826;52.070;20.970;2023-02-10T12:51:33;61484.16;;;-147.04;87.66
39075;BME280;24826;52.070;20.970;2023-02-10T12:54:24;61474.22;;;-147.04;87.61
39075;BME280;24826;52.070;20.970;2023-02-10T12:57:19;61480.19;;;-147.04;87.61
39075;BME280;24826;52.070;20.970;2023-02-10T13:00:25;61482.19;;;-147.04;87.69
39075;BME280;24826;52.070;20.970;2023-02-10T13:03:15;61464.28;;;-147.04;87.62
39075;BME280;24826;52.070;20.970;2023-02-10T13:06:25;61468.25;;;-147.04;87.99
39075;BME280;24826;52.070;20.970;2023-02-10T13:12:18;61494.09;;;-147.04;87.96
39075;BME280;24826;52.070;20.970;2023-02-10T13:15:17;61476.22;;;-147.04;87.68
39075;BME280;24826;52.070;20.970;2023-02-10T13:18:16;61514.00;;;-147.04;87.84
39075;BME280;24826;52.070;20.970;2023-02-10T13:21:14;61523.94;;;-147.04;87.55
39075;BME280;24826;52.070;20.970;2023-02-10T13:24:08;61464.28;;;-147.04;87.42
39075;BME280;24826;52.070;20.970;2023-02-10T13:27:02;61476.22;;;-147.04;87.66
39075;BME280;24826;52.070;20.970;2023-02-10T13:30:06;61496.09;;;-147.04;87.38
39075;BME280;24826;52.070;20.970;2023-02-10T13:33:24;61488.13;;;-147.04;87.41
39075;BME280;24826;52.070;20.970;2023-02-10T13:36:17;61466.25;;;-147.04;87.65
39075;BME280;24826;52.070;20.970;2023-02-10T13:39:15;61418.53;;;-147.04;87.80
39075;BME280;24826;52.070;20.970;2023-02-10T13:42:26;61446.38;;;-147.04;87.87
39075;BME280;24826;52.070;20.970;2023-02-10T13:48:03;61474.22;;;-147.04;87.63
39075;BME280;24826;52.070;20.970;2023-02-10T13:50:51;61444.41;;;-147.04;87.73
39075;BME280;24826;52.070;20.970;2023-02-10T13:53:40;61436.44;;;-147.04;88.09
39075;BME280;24826;52.070;20.970;2023-02-10T13:56:29;61448.38;;;-147.04;88.65
39075;BME280;24826;52.070;20.970;2023-02-10T14:02:17;61416.56;;;-147.04;89.13
39075;BME280;24826;52.070;20.970;2023-02-10T14:05:22;61460.31;;;-147.04;89.50
39075;BME280;24826;52.070;20.970;2023-02-10T14:08:25;61428.47;;;-147.04;89.24
39075;BME280;24826;52.070;20.970;2023-02-10T14:14:02;61424.50;;;-147.04;89.17
39075;BME280;24826;52.070;20.970;2023-02-10T14:16:49;61490.13;;;-147.04;89.52
39075;BME280;24826;52.070;20.970;2023-02-10T14:19:38;61436.44;;;-147.04;90.15
39075;BME280;24826;52.070;20.970;2023-02-10T14:22:24;61458.31;;;-147.04;90.08
39075;BME280;24826;52.070;20.970;2023-02-10T14:27:54;61452.34;;;-147.04;90.38
39075;BME280;24826;52.070;20.970;2023-02-10T14:30:42;61418.53;;;-147.04;90.04
39075;BME280;24826;52.070;20.970;2023-02-10T14:33:30;61452.34;;;-147.04;90.40
39075;BME280;24826;52.070;20.970;2023-02-10T14:36:17;61436.44;;;-147.04;90.83
39075;BME280;24826;52.070;20.970;2023-02-10T14:39:02;61412.56;;;-147.04;91.00
39075;BME280;24826;52.070;20.970;2023-02-10T14:41:50;61430.47;;;-147.04;90.72
39075;BME280;24826;52.070;20.970;2023-02-10T14:44:48;61408.59;;;-147.04;91.32
39075;BME280;24826;52.070;20.970;2023-02-10T14:47:34;61432.47;;;-147.04;91.56
39075;BME280;24826;52.070;20.970;2023-02-10T14:50:34;61436.44;;;-147.04;91.70
39075;BME280;24826;52.070;20.970;2023-02-10T14:53:20;61406.63;;;-147.04;92.74
39075;BME280;24826;52.070;20.970;2023-02-10T14:56:04;61448.38;;;-147.04;93.49
39075;BME280;24826;52.070;20.970;2023-02-10T14:58:49;61446.38;;;-147.04;93.94
39075;BME280;24826;52.070;20.970;2023-02-10T15:01:35;61452.34;;;-147.04;93.97
39075;BME280;24826;52.070;20.970;2023-02-10T15:04:21;61492.13;;;-147.04;94.04
39075;BME280;24826;52.070;20.970;2023-02-10T15:07:17;61426.50;;;-147.04;94.13
39075;BME280;24826;52.070;20.970;2023-02-10T15:10:25;61406.63;;;-147.04;94.36
39075;BME280;24826;52.070;20.970;2023-02-10T15:13:12;61422.53;;;-147.04;94.83
39075;BME280;24826;52.070;20.970;2023-02-10T15:15:57;61440.41;;;-147.04;95.52
39075;BME280;24826;52.070;20.970;2023-02-10T15:18:45;61440.41;;;-147.04;95.44
39075;BME280;24826;52.070;20.970;2023-02-10T15:21:34;61454.34;;;-147.04;96.25
39075;BME280;24826;52.070;20.970;2023-02-10T15:27:22;61430.47;;;-147.04;96.77
39075;BME280;24826;52.070;20.970;2023-02-10T15:30:08;61456.31;;;-147.04;97.42
39075;BME280;24826;52.070;20.970;2023-02-10T15:33:18;61422.53;;;-147.04;97.59
39075;BME280;24826;52.070;20.970;2023-02-10T15:36:14;61452.34;;;-147.04;97.90
39075;BME280;24826;52.070;20.970;2023-02-10T15:39:04;61444.41;;;-147.04;98.12
39075;BME280;24826;52.070;20.970;2023-02-10T15:44:41;61448.38;;;-147.04;98.50
39075;BME280;24826;52.070;20.970;2023-02-10T15:47:36;61460.31;;;-147.04;98.98
39075;BME280;24826;52.070;20.970;2023-02-10T15:50:24;61444.41;;;-147.04;99.49